首页
METAR-TAF:

METAR-TAF

机场 :

堪薩斯城, 密蘇里州, 美国

纬度: 39-17-50N, 经度: 094-43-50W, 海拔: 312米

当前天气观测

该预报发布于23分钟前的16:53 UTC
风速10节,风向南转西南
温度 31°C
湿度 66%
气压 1010 hPa
能見度: 16.1公里
天空无云

METAR: KMCI 151653Z 21010KT 10SM CLR 31/24 A2983 RMK AO2 SLP086 T03110239

时间: 12:16 (17:16 UTC)

预报

该预报发布于5小时和44分钟前的11:32 UTC
预报有效从15日的 12点(UTC)到 16日的 12点(UTC)
风速9节,风向南转西南
能見度: 10公里
天空无云
从 15日的 1600点(UTC)
风速14节,风向南转西南,有时为21节阵风
能見度: 10公里
天空无云
从 16日的 0100点(UTC)
风速9节,风向
能見度: 10公里
少量云层高于25000英尺

TAF: KMCI 151132Z 1512/1612 20009KT P6SM SKC FM151600 21014G21KT P6SM SKC FM160100 18009KT P6SM FEW250

超过4000个机场的气象观测和天气预报(METAR&TAF报告)。

可查询的气象台以黄色和红色小点在地图上表示。

将鼠标移到小点上方,可查看气象台名称。

然后点击查看天气观测和预报。

如需切换地图:点击带黑十字的绿色按钮放大地图;点击带横线的绿色按钮缩小地图;或者点击绿色箭头查看邻近地区的地图。


METAR-TAF: